sensor_id;sensor_type;location;lat;lon;timestamp;P1;durP1;ratioP1;P2;durP2;ratioP2
6392;SDS011;3229;42.674;23.282;2023-04-21T00:02:07;10.73;;;5.47;;
6392;SDS011;3229;42.674;23.282;2023-04-21T00:04:34;6.97;;;5.57;;
6392;SDS011;3229;42.674;23.282;2023-04-21T00:07:00;5.43;;;4.87;;
6392;SDS011;3229;42.674;23.282;2023-04-21T00:09:28;8.13;;;5.33;;
6392;SDS011;3229;42.674;23.282;2023-04-21T00:11:55;8.93;;;5.50;;
6392;SDS011;3229;42.674;23.282;2023-04-21T00:14:23;6.00;;;5.10;;
6392;SDS011;3229;42.674;23.282;2023-04-21T00:16:50;7.27;;;5.33;;
6392;SDS011;3229;42.674;23.282;2023-04-21T00:19:17;6.30;;;5.27;;
6392;SDS011;3229;42.674;23.282;2023-04-21T00:21:44;6.50;;;5.23;;
6392;SDS011;3229;42.674;23.282;2023-04-21T00:24:11;7.47;;;5.80;;
6392;SDS011;3229;42.674;23.282;2023-04-21T00:26:38;8.47;;;6.10;;
6392;SDS011;3229;42.674;23.282;2023-04-21T00:29:04;5.97;;;5.30;;
6392;SDS011;3229;42.674;23.282;2023-04-21T00:31:32;6.17;;;5.30;;
6392;SDS011;3229;42.674;23.282;2023-04-21T00:33:59;8.23;;;5.50;;
6392;SDS011;3229;42.674;23.282;2023-04-21T00:36:26;9.33;;;5.63;;
6392;SDS011;3229;42.674;23.282;2023-04-21T00:38:53;6.23;;;5.37;;
6392;SDS011;3229;42.674;23.282;2023-04-21T00:41:20;8.83;;;5.30;;
6392;SDS011;3229;42.674;23.282;2023-04-21T00:44:00;9.27;;;5.40;;
6392;SDS011;3229;42.674;23.282;2023-04-21T00:46:27;7.83;;;5.60;;
6392;SDS011;3229;42.674;23.282;2023-04-21T00:48:56;7.50;;;5.40;;
6392;SDS011;3229;42.674;23.282;2023-04-21T00:51:23;7.37;;;5.50;;
6392;SDS011;3229;42.674;23.282;2023-04-21T00:53:50;7.70;;;5.23;;
6392;SDS011;3229;42.674;23.282;2023-04-21T00:56:17;7.37;;;5.33;;
6392;SDS011;3229;42.674;23.282;2023-04-21T00:58:45;6.23;;;5.03;;
6392;SDS011;3229;42.674;23.282;2023-04-21T01:01:14;5.37;;;4.77;;
6392;SDS011;3229;42.674;23.282;2023-04-21T01:03:41;7.43;;;5.17;;
6392;SDS011;3229;42.674;23.282;2023-04-21T01:06:09;6.33;;;5.17;;
6392;SDS011;3229;42.674;23.282;2023-04-21T01:08:36;6.90;;;5.63;;
6392;SDS011;3229;42.674;23.282;2023-04-21T01:11:08;6.43;;;5.60;;
6392;SDS011;3229;42.674;23.282;2023-04-21T01:13:36;6.13;;;5.10;;
6392;SDS011;3229;42.674;23.282;2023-04-21T01:16:03;6.17;;;5.17;;
6392;SDS011;3229;42.674;23.282;2023-04-21T01:18:30;6.53;;;5.67;;
6392;SDS011;3229;42.674;23.282;2023-04-21T01:20:57;6.40;;;5.20;;
6392;SDS011;3229;42.674;23.282;2023-04-21T01:23:25;7.60;;;5.10;;
6392;SDS011;3229;42.674;23.282;2023-04-21T01:25:52;9.20;;;5.67;;
6392;SDS011;3229;42.674;23.282;2023-04-21T01:28:20;8.83;;;4.50;;
6392;SDS011;3229;42.674;23.282;2023-04-21T01:30:47;5.83;;;5.27;;
6392;SDS011;3229;42.674;23.282;2023-04-21T01:33:14;7.20;;;5.40;;
6392;SDS011;3229;42.674;23.282;2023-04-21T01:35:41;8.57;;;5.00;;
6392;SDS011;3229;42.674;23.282;2023-04-21T01:38:08;6.57;;;4.83;;
6392;SDS011;3229;42.674;23.282;2023-04-21T01:40:36;6.07;;;4.60;;
6392;SDS011;3229;42.674;23.282;2023-04-21T01:43:05;5.40;;;4.70;;
6392;SDS011;3229;42.674;23.282;2023-04-21T01:45:33;4.83;;;4.43;;
6392;SDS011;3229;42.674;23.282;2023-04-21T01:48:00;7.80;;;4.70;;
6392;SDS011;3229;42.674;23.282;2023-04-21T01:50:27;5.53;;;4.60;;
6392;SDS011;3229;42.674;23.282;2023-04-21T01:52:54;5.33;;;4.60;;
6392;SDS011;3229;42.674;23.282;2023-04-21T01:55:21;5.37;;;4.87;;
6392;SDS011;3229;42.674;23.282;2023-04-21T01:57:49;4.73;;;4.23;;
6392;SDS011;3229;42.674;23.282;2023-04-21T02:00:16;8.63;;;4.87;;
6392;SDS011;3229;42.674;23.282;2023-04-21T02:02:43;5.37;;;4.87;;
6392;SDS011;3229;42.674;23.282;2023-04-21T02:05:10;7.93;;;5.00;;
6392;SDS011;3229;42.674;23.282;2023-04-21T02:07:37;5.77;;;5.00;;
6392;SDS011;3229;42.674;23.282;2023-04-21T02:10:03;4.83;;;4.43;;
6392;SDS011;3229;42.674;23.282;2023-04-21T02:12:30;7.07;;;4.53;;
6392;SDS011;3229;42.674;23.282;2023-04-21T02:14:59;6.60;;;4.93;;
6392;SDS011;3229;42.674;23.282;2023-04-21T02:17:25;5.07;;;4.57;;
6392;SDS011;3229;42.674;23.282;2023-04-21T02:19:52;5.87;;;4.90;;
6392;SDS011;3229;42.674;23.282;2023-04-21T02:22:19;5.63;;;4.63;;
6392;SDS011;3229;42.674;23.282;2023-04-21T02:24:47;5.70;;;4.30;;
6392;SDS011;3229;42.674;23.282;2023-04-21T02:27:14;5.07;;;4.57;;
6392;SDS011;3229;42.674;23.282;2023-04-21T02:29:40;6.17;;;4.37;;
6392;SDS011;3229;42.674;23.282;2023-04-21T02:32:09;11.30;;;4.70;;
6392;SDS011;3229;42.674;23.282;2023-04-21T02:34:35;7.23;;;4.80;;
6392;SDS011;3229;42.674;23.282;2023-04-21T02:37:02;5.83;;;5.23;;
6392;SDS011;3229;42.674;23.282;2023-04-21T02:39:29;5.90;;;5.17;;
6392;SDS011;3229;42.674;23.282;2023-04-21T02:41:56;6.53;;;4.70;;
6392;SDS011;3229;42.674;23.282;2023-04-21T02:44:22;4.90;;;4.50;;
6392;SDS011;3229;42.674;23.282;2023-04-21T02:46:50;6.03;;;4.97;;
6392;SDS011;3229;42.674;23.282;2023-04-21T02:49:18;5.23;;;4.70;;
6392;SDS011;3229;42.674;23.282;2023-04-21T02:51:45;7.97;;;4.67;;
6392;SDS011;3229;42.674;23.282;2023-04-21T02:54:12;5.20;;;4.20;;
6392;SDS011;3229;42.674;23.282;2023-04-21T02:56:38;6.23;;;4.63;;
6392;SDS011;3229;42.674;23.282;2023-04-21T02:59:05;7.07;;;4.67;;
6392;SDS011;3229;42.674;23.282;2023-04-21T03:01:32;5.87;;;5.17;;
6392;SDS011;3229;42.674;23.282;2023-04-21T03:03:59;5.00;;;4.50;;
6392;SDS011;3229;42.674;23.282;2023-04-21T03:06:27;5.13;;;4.63;;
6392;SDS011;3229;42.674;23.282;2023-04-21T03:08:54;6.80;;;4.73;;
6392;SDS011;3229;42.674;23.282;2023-04-21T03:11:21;6.87;;;4.37;;
6392;SDS011;3229;42.674;23.282;2023-04-21T03:13:48;5.53;;;5.03;;
6392;SDS011;3229;42.674;23.282;2023-04-21T03:16:15;5.93;;;5.00;;
6392;SDS011;3229;42.674;23.282;2023-04-21T03:18:42;5.60;;;4.83;;
6392;SDS011;3229;42.674;23.282;2023-04-21T03:21:08;5.60;;;4.73;;
6392;SDS011;3229;42.674;23.282;2023-04-21T03:23:36;4.90;;;4.40;;
6392;SDS011;3229;42.674;23.282;2023-04-21T03:26:05;5.53;;;4.07;;
6392;SDS011;3229;42.674;23.282;2023-04-21T03:28:32;7.10;;;4.77;;
6392;SDS011;3229;42.674;23.282;2023-04-21T03:30:59;7.00;;;4.90;;
6392;SDS011;3229;42.674;23.282;2023-04-21T03:33:25;5.17;;;4.60;;
6392;SDS011;3229;42.674;23.282;2023-04-21T03:35:52;6.97;;;5.00;;
6392;SDS011;3229;42.674;23.282;2023-04-21T03:38:19;4.70;;;4.30;;
6392;SDS011;3229;42.674;23.282;2023-04-21T03:40:47;5.30;;;4.53;;
6392;SDS011;3229;42.674;23.282;2023-04-21T03:43:14;4.97;;;4.57;;
6392;SDS011;3229;42.674;23.282;2023-04-21T03:45:41;5.07;;;4.50;;
6392;SDS011;3229;42.674;23.282;2023-04-21T03:48:08;5.23;;;4.80;;
6392;SDS011;3229;42.674;23.282;2023-04-21T03:50:35;5.40;;;4.77;;
6392;SDS011;3229;42.674;23.282;2023-04-21T03:53:03;7.47;;;4.70;;
6392;SDS011;3229;42.674;23.282;2023-04-21T03:55:29;4.80;;;4.40;;
6392;SDS011;3229;42.674;23.282;2023-04-21T03:57:58;6.17;;;4.43;;
6392;SDS011;3229;42.674;23.282;2023-04-21T04:00:24;5.20;;;4.70;;
6392;SDS011;3229;42.674;23.282;2023-04-21T04:02:51;5.07;;;4.57;;
6392;SDS011;3229;42.674;23.282;2023-04-21T04:05:18;7.60;;;4.77;;
6392;SDS011;3229;42.674;23.282;2023-04-21T04:07:45;4.73;;;4.23;;
6392;SDS011;3229;42.674;23.282;2023-04-21T04:10:12;4.73;;;4.27;;
6392;SDS011;3229;42.674;23.282;2023-04-21T04:12:38;6.00;;;4.63;;
6392;SDS011;3229;42.674;23.282;2023-04-21T04:15:07;5.20;;;4.57;;
6392;SDS011;3229;42.674;23.282;2023-04-21T04:17:34;5.07;;;4.40;;
6392;SDS011;3229;42.674;23.282;2023-04-21T04:20:01;6.37;;;5.03;;
6392;SDS011;3229;42.674;23.282;2023-04-21T04:22:30;6.57;;;4.90;;
6392;SDS011;3229;42.674;23.282;2023-04-21T04:24:57;5.70;;;5.20;;
6392;SDS011;3229;42.674;23.282;2023-04-21T04:27:25;6.27;;;5.07;;
6392;SDS011;3229;42.674;23.282;2023-04-21T04:29:52;4.93;;;4.43;;
6392;SDS011;3229;42.674;23.282;2023-04-21T04:32:20;5.90;;;5.40;;
6392;SDS011;3229;42.674;23.282;2023-04-21T04:34:47;4.83;;;4.40;;
6392;SDS011;3229;42.674;23.282;2023-04-21T04:37:16;6.00;;;4.57;;
6392;SDS011;3229;42.674;23.282;2023-04-21T04:39:45;5.47;;;4.97;;
6392;SDS011;3229;42.674;23.282;2023-04-21T04:42:13;6.13;;;5.10;;
6392;SDS011;3229;42.674;23.282;2023-04-21T04:44:39;6.63;;;5.63;;
6392;SDS011;3229;42.674;23.282;2023-04-21T04:47:06;7.73;;;5.10;;
6392;SDS011;3229;42.674;23.282;2023-04-21T04:49:34;7.23;;;5.37;;
6392;SDS011;3229;42.674;23.282;2023-04-21T04:52:01;8.20;;;5.47;;
6392;SDS011;3229;42.674;23.282;2023-04-21T04:54:28;5.73;;;4.83;;
6392;SDS011;3229;42.674;23.282;2023-04-21T04:56:55;5.60;;;5.10;;
6392;SDS011;3229;42.674;23.282;2023-04-21T04:59:22;4.73;;;4.30;;
6392;SDS011;3229;42.674;23.282;2023-04-21T05:01:49;6.83;;;5.80;;
6392;SDS011;3229;42.674;23.282;2023-04-21T05:04:16;8.20;;;5.40;;
6392;SDS011;3229;42.674;23.282;2023-04-21T05:06:44;8.23;;;3.70;;
6392;SDS011;3229;42.674;23.282;2023-04-21T05:09:11;9.17;;;3.70;;
6392;SDS011;3229;42.674;23.282;2023-04-21T05:11:38;4.63;;;3.73;;
6392;SDS011;3229;42.674;23.282;2023-04-21T05:14:05;4.93;;;4.00;;
6392;SDS011;3229;42.674;23.282;2023-04-21T05:16:31;4.30;;;3.67;;
6392;SDS011;3229;42.674;23.282;2023-04-21T05:18:59;4.93;;;3.27;;
6392;SDS011;3229;42.674;23.282;2023-04-21T05:21:27;5.63;;;4.10;;
6392;SDS011;3229;42.674;23.282;2023-04-21T05:23:57;5.40;;;3.67;;
6392;SDS011;3229;42.674;23.282;2023-04-21T05:26:25;6.33;;;4.33;;
6392;SDS011;3229;42.674;23.282;2023-04-21T05:28:53;7.27;;;3.53;;
6392;SDS011;3229;42.674;23.282;2023-04-21T05:31:20;6.97;;;4.53;;
6392;SDS011;3229;42.674;23.282;2023-04-21T05:33:47;7.23;;;4.40;;
6392;SDS011;3229;42.674;23.282;2023-04-21T05:36:14;5.70;;;4.53;;
6392;SDS011;3229;42.674;23.282;2023-04-21T05:38:41;8.20;;;4.90;;
6392;SDS011;3229;42.674;23.282;2023-04-21T05:41:09;4.73;;;4.27;;
6392;SDS011;3229;42.674;23.282;2023-04-21T05:43:36;4.60;;;4.20;;
6392;SDS011;3229;42.674;23.282;2023-04-21T05:46:07;8.23;;;4.47;;
6392;SDS011;3229;42.674;23.282;2023-04-21T05:48:35;4.60;;;4.20;;
6392;SDS011;3229;42.674;23.282;2023-04-21T05:51:06;4.73;;;4.33;;
6392;SDS011;3229;42.674;23.282;2023-04-21T05:53:34;5.50;;;4.27;;
6392;SDS011;3229;42.674;23.282;2023-04-21T05:56:02;5.30;;;4.07;;
6392;SDS011;3229;42.674;23.282;2023-04-21T05:58:31;4.80;;;4.40;;
6392;SDS011;3229;42.674;23.282;2023-04-21T06:00:58;4.43;;;4.13;;
6392;SDS011;3229;42.674;23.282;2023-04-21T06:03:25;4.60;;;4.20;;
6392;SDS011;3229;42.674;23.282;2023-04-21T06:05:52;5.60;;;4.00;;
6392;SDS011;3229;42.674;23.282;2023-04-21T06:08:20;7.07;;;4.50;;
6392;SDS011;3229;42.674;23.282;2023-04-21T06:10:47;6.03;;;4.22;;
6392;SDS011;3229;42.674;23.282;2023-04-21T06:13:13;4.20;;;3.80;;
6392;SDS011;3229;42.674;23.282;2023-04-21T06:15:42;6.80;;;4.22;;
6392;SDS011;3229;42.674;23.282;2023-04-21T06:18:08;5.15;;;3.90;;
6392;SDS011;3229;42.674;23.282;2023-04-21T06:20:35;5.20;;;4.13;;
6392;SDS011;3229;42.674;23.282;2023-04-21T06:23:05;3.97;;;3.58;;
6392;SDS011;3229;42.674;23.282;2023-04-21T06:25:31;5.15;;;4.03;;
6392;SDS011;3229;42.674;23.282;2023-04-21T06:28:00;4.70;;;3.60;;
6392;SDS011;3229;42.674;23.282;2023-04-21T06:30:26;3.90;;;3.47;;
6392;SDS011;3229;42.674;23.282;2023-04-21T06:32:55;4.10;;;3.70;;
6392;SDS011;3229;42.674;23.282;2023-04-21T06:35:21;5.72;;;3.60;;
6392;SDS011;3229;42.674;23.282;2023-04-21T06:37:48;3.55;;;3.25;;
6392;SDS011;3229;42.674;23.282;2023-04-21T06:40:15;3.35;;;3.08;;
6392;SDS011;3229;42.674;23.282;2023-04-21T06:42:42;3.47;;;3.17;;
6392;SDS011;3229;42.674;23.282;2023-04-21T06:45:09;3.58;;;3.22;;
6392;SDS011;3229;42.674;23.282;2023-04-21T06:47:36;5.22;;;3.17;;
6392;SDS011;3229;42.674;23.282;2023-04-21T06:50:05;3.50;;;3.03;;
6392;SDS011;3229;42.674;23.282;2023-04-21T06:52:33;4.45;;;3.28;;
6392;SDS011;3229;42.674;23.282;2023-04-21T06:54:59;3.90;;;3.50;;
6392;SDS011;3229;42.674;23.282;2023-04-21T06:57:26;3.17;;;2.88;;
6392;SDS011;3229;42.674;23.282;2023-04-21T06:59:53;5.18;;;3.63;;
6392;SDS011;3229;42.674;23.282;2023-04-21T07:02:20;3.63;;;2.92;;
6392;SDS011;3229;42.674;23.282;2023-04-21T07:04:47;4.28;;;3.40;;
6392;SDS011;3229;42.674;23.282;2023-04-21T07:07:15;3.35;;;2.90;;
6392;SDS011;3229;42.674;23.282;2023-04-21T07:09:41;3.97;;;3.42;;
6392;SDS011;3229;42.674;23.282;2023-04-21T07:12:11;3.90;;;3.25;;
6392;SDS011;3229;42.674;23.282;2023-04-21T07:14:38;3.97;;;3.58;;
6392;SDS011;3229;42.674;23.282;2023-04-21T07:17:05;3.33;;;3.13;;
6392;SDS011;3229;42.674;23.282;2023-04-21T07:19:33;3.28;;;2.97;;
6392;SDS011;3229;42.674;23.282;2023-04-21T07:22:01;4.25;;;3.40;;
6392;SDS011;3229;42.674;23.282;2023-04-21T07:24:29;3.35;;;3.08;;
6392;SDS011;3229;42.674;23.282;2023-04-21T07:26:56;3.30;;;3.00;;
6392;SDS011;3229;42.674;23.282;2023-04-21T07:29:22;3.97;;;2.95;;
6392;SDS011;3229;42.674;23.282;2023-04-21T07:31:49;3.60;;;3.30;;
6392;SDS011;3229;42.674;23.282;2023-04-21T07:34:16;3.67;;;3.38;;
6392;SDS011;3229;42.674;23.282;2023-04-21T07:36:43;5.35;;;3.53;;
6392;SDS011;3229;42.674;23.282;2023-04-21T07:39:10;3.90;;;2.92;;
6392;SDS011;3229;42.674;23.282;2023-04-21T07:41:38;5.65;;;3.13;;
6392;SDS011;3229;42.674;23.282;2023-04-21T07:44:05;3.45;;;3.10;;
6392;SDS011;3229;42.674;23.282;2023-04-21T07:46:32;3.50;;;3.20;;
6392;SDS011;3229;42.674;23.282;2023-04-21T07:48:58;3.80;;;2.95;;
6392;SDS011;3229;42.674;23.282;2023-04-21T07:51:26;4.30;;;2.97;;
6392;SDS011;3229;42.674;23.282;2023-04-21T07:53:53;4.80;;;3.35;;
6392;SDS011;3229;42.674;23.282;2023-04-21T07:56:19;3.85;;;3.55;;
6392;SDS011;3229;42.674;23.282;2023-04-21T07:58:48;3.40;;;3.00;;
6392;SDS011;3229;42.674;23.282;2023-04-21T08:01:15;5.25;;;3.28;;
6392;SDS011;3229;42.674;23.282;2023-04-21T08:03:42;5.40;;;3.50;;
6392;SDS011;3229;42.674;23.282;2023-04-21T08:06:08;3.85;;;3.10;;
6392;SDS011;3229;42.674;23.282;2023-04-21T08:08:35;4.00;;;3.17;;
6392;SDS011;3229;42.674;23.282;2023-04-21T08:11:02;4.07;;;3.58;;
6392;SDS011;3229;42.674;23.282;2023-04-21T08:13:29;3.88;;;3.20;;
6392;SDS011;3229;42.674;23.282;2023-04-21T08:15:57;4.80;;;3.50;;
6392;SDS011;3229;42.674;23.282;2023-04-21T08:18:24;4.00;;;3.60;;
6392;SDS011;3229;42.674;23.282;2023-04-21T08:20:51;3.95;;;3.03;;
6392;SDS011;3229;42.674;23.282;2023-04-21T08:23:19;4.00;;;2.90;;
6392;SDS011;3229;42.674;23.282;2023-04-21T08:25:46;3.95;;;3.05;;
6392;SDS011;3229;42.674;23.282;2023-04-21T08:28:13;3.63;;;3.20;;
6392;SDS011;3229;42.674;23.282;2023-04-21T08:30:40;3.42;;;3.08;;
6392;SDS011;3229;42.674;23.282;2023-04-21T08:33:08;4.05;;;3.35;;
6392;SDS011;3229;42.674;23.282;2023-04-21T08:35:37;4.88;;;3.22;;
6392;SDS011;3229;42.674;23.282;2023-04-21T08:38:04;4.00;;;3.40;;
6392;SDS011;3229;42.674;23.282;2023-04-21T08:40:33;3.65;;;3.05;;
6392;SDS011;3229;42.674;23.282;2023-04-21T08:43:03;3.55;;;3.25;;
6392;SDS011;3229;42.674;23.282;2023-04-21T08:45:31;4.13;;;3.25;;
6392;SDS011;3229;42.674;23.282;2023-04-21T08:47:58;3.58;;;3.28;;
6392;SDS011;3229;42.674;23.282;2023-04-21T08:50:28;4.57;;;3.42;;
6392;SDS011;3229;42.674;23.282;2023-04-21T08:52:56;3.60;;;3.30;;
6392;SDS011;3229;42.674;23.282;2023-04-21T08:55:24;6.95;;;3.60;;
6392;SDS011;3229;42.674;23.282;2023-04-21T08:57:52;5.35;;;3.65;;
6392;SDS011;3229;42.674;23.282;2023-04-21T09:00:19;5.20;;;3.78;;
6392;SDS011;3229;42.674;23.282;2023-04-21T09:02:52;5.85;;;3.33;;
6392;SDS011;3229;42.674;23.282;2023-04-21T09:05:21;3.42;;;3.13;;
6392;SDS011;3229;42.674;23.282;2023-04-21T09:07:52;4.00;;;3.60;;
6392;SDS011;3229;42.674;23.282;2023-04-21T09:10:23;4.00;;;3.60;;
6392;SDS011;3229;42.674;23.282;2023-04-21T09:12:51;3.80;;;3.30;;
6392;SDS011;3229;42.674;23.282;2023-04-21T09:15:19;6.22;;;3.85;;
6392;SDS011;3229;42.674;23.282;2023-04-21T09:17:49;4.00;;;3.60;;
6392;SDS011;3229;42.674;23.282;2023-04-21T09:20:21;4.88;;;3.03;;
6392;SDS011;3229;42.674;23.282;2023-04-21T09:22:48;4.82;;;3.35;;
6392;SDS011;3229;42.674;23.282;2023-04-21T09:25:18;4.13;;;3.75;;
6392;SDS011;3229;42.674;23.282;2023-04-21T09:27:45;3.30;;;2.88;;
6392;SDS011;3229;42.674;23.282;2023-04-21T09:30:14;4.70;;;3.40;;
6392;SDS011;3229;42.674;23.282;2023-04-21T09:32:44;3.63;;;3.33;;
6392;SDS011;3229;42.674;23.282;2023-04-21T09:35:11;4.47;;;3.75;;
6392;SDS011;3229;42.674;23.282;2023-04-21T09:37:38;4.45;;;3.30;;
6392;SDS011;3229;42.674;23.282;2023-04-21T09:40:05;3.85;;;3.42;;
6392;SDS011;3229;42.674;23.282;2023-04-21T09:42:34;3.67;;;3.35;;
6392;SDS011;3229;42.674;23.282;2023-04-21T09:45:01;4.32;;;3.53;;
6392;SDS011;3229;42.674;23.282;2023-04-21T09:47:28;7.13;;;3.60;;
6392;SDS011;3229;42.674;23.282;2023-04-21T09:49:56;3.13;;;2.92;;
6392;SDS011;3229;42.674;23.282;2023-04-21T09:52:23;4.10;;;3.35;;
6392;SDS011;3229;42.674;23.282;2023-04-21T09:54:56;3.30;;;2.97;;
6392;SDS011;3229;42.674;23.282;2023-04-21T09:57:28;3.55;;;2.92;;
6392;SDS011;3229;42.674;23.282;2023-04-21T10:00:00;4.45;;;3.22;;
6392;SDS011;3229;42.674;23.282;2023-04-21T10:02:33;3.30;;;3.00;;
6392;SDS011;3229;42.674;23.282;2023-04-21T10:05:01;3.33;;;3.00;;
6392;SDS011;3229;42.674;23.282;2023-04-21T10:07:30;3.47;;;3.17;;
6392;SDS011;3229;42.674;23.282;2023-04-21T10:09:57;3.08;;;2.70;;
6392;SDS011;3229;42.674;23.282;2023-04-21T10:12:26;3.90;;;3.40;;
6392;SDS011;3229;42.674;23.282;2023-04-21T10:14:53;4.03;;;2.78;;
6392;SDS011;3229;42.674;23.282;2023-04-21T10:17:22;3.42;;;3.15;;
6392;SDS011;3229;42.674;23.282;2023-04-21T10:19:51;4.35;;;3.42;;
6392;SDS011;3229;42.674;23.282;2023-04-21T10:22:27;4.18;;;3.30;;
6392;SDS011;3229;42.674;23.282;2023-04-21T10:24:56;3.38;;;3.05;;
6392;SDS011;3229;42.674;23.282;2023-04-21T10:27:30;4.15;;;3.28;;
6392;SDS011;3229;42.674;23.282;2023-04-21T10:29:58;4.65;;;3.22;;
6392;SDS011;3229;42.674;23.282;2023-04-21T10:32:39;3.95;;;3.35;;
6392;SDS011;3229;42.674;23.282;2023-04-21T10:35:07;5.95;;;3.20;;
6392;SDS011;3229;42.674;23.282;2023-04-21T10:37:35;3.65;;;3.10;;
6392;SDS011;3229;42.674;23.282;2023-04-21T10:40:02;3.40;;;3.10;;
6392;SDS011;3229;42.674;23.282;2023-04-21T10:42:33;3.78;;;3.45;;
6392;SDS011;3229;42.674;23.282;2023-04-21T10:45:11;3.80;;;3.13;;
6392;SDS011;3229;42.674;23.282;2023-04-21T10:47:43;5.18;;;3.40;;
6392;SDS011;3229;42.674;23.282;2023-04-21T10:50:20;4.68;;;2.83;;
6392;SDS011;3229;42.674;23.282;2023-04-21T10:52:53;3.35;;;3.00;;
6392;SDS011;3229;42.674;23.282;2023-04-21T10:55:24;3.97;;;3.10;;
6392;SDS011;3229;42.674;23.282;2023-04-21T10:57:52;4.65;;;3.03;;
6392;SDS011;3229;42.674;23.282;2023-04-21T11:00:20;3.50;;;3.20;;
6392;SDS011;3229;42.674;23.282;2023-04-21T11:02:56;6.07;;;3.47;;
6392;SDS011;3229;42.674;23.282;2023-04-21T11:05:28;3.90;;;3.50;;
6392;SDS011;3229;42.674;23.282;2023-04-21T11:10:41;3.67;;;3.22;;
6392;SDS011;3229;42.674;23.282;2023-04-21T11:13:14;6.25;;;3.30;;
6392;SDS011;3229;42.674;23.282;2023-04-21T11:15:40;3.63;;;3.17;;
6392;SDS011;3229;42.674;23.282;2023-04-21T11:18:09;3.38;;;3.08;;
6392;SDS011;3229;42.674;23.282;2023-04-21T11:20:38;2.95;;;2.72;;
6392;SDS011;3229;42.674;23.282;2023-04-21T11:23:06;5.38;;;3.13;;
6392;SDS011;3229;42.674;23.282;2023-04-21T11:25:33;3.58;;;2.92;;
6392;SDS011;3229;42.674;23.282;2023-04-21T11:28:00;3.08;;;2.83;;
6392;SDS011;3229;42.674;23.282;2023-04-21T11:30:31;3.40;;;3.10;;
6392;SDS011;3229;42.674;23.282;2023-04-21T11:32:59;4.18;;;3.30;;
6392;SDS011;3229;42.674;23.282;2023-04-21T11:35:28;2.97;;;2.78;;
6392;SDS011;3229;42.674;23.282;2023-04-21T11:37:56;3.40;;;3.10;;
6392;SDS011;3229;42.674;23.282;2023-04-21T11:40:23;3.58;;;3.28;;
6392;SDS011;3229;42.674;23.282;2023-04-21T11:42:49;4.35;;;3.38;;
6392;SDS011;3229;42.674;23.282;2023-04-21T11:45:17;3.78;;;3.20;;
6392;SDS011;3229;42.674;23.282;2023-04-21T11:47:44;3.50;;;3.10;;
6392;SDS011;3229;42.674;23.282;2023-04-21T11:50:11;3.60;;;3.08;;
6392;SDS011;3229;42.674;23.282;2023-04-21T11:52:57;3.50;;;3.20;;
6392;SDS011;3229;42.674;23.282;2023-04-21T11:55:27;4.57;;;3.55;;
6392;SDS011;3229;42.674;23.282;2023-04-21T11:57:55;3.63;;;2.85;;
6392;SDS011;3229;42.674;23.282;2023-04-21T12:00:23;4.20;;;3.08;;
6392;SDS011;3229;42.674;23.282;2023-04-21T12:02:55;3.83;;;3.22;;
6392;SDS011;3229;42.674;23.282;2023-04-21T12:05:22;5.32;;;2.78;;
6392;SDS011;3229;42.674;23.282;2023-04-21T12:07:50;3.22;;;2.95;;
6392;SDS011;3229;42.674;23.282;2023-04-21T12:10:21;3.13;;;2.83;;
6392;SDS011;3229;42.674;23.282;2023-04-21T12:12:48;3.30;;;3.00;;
6392;SDS011;3229;42.674;23.282;2023-04-21T12:15:16;4.78;;;2.97;;
6392;SDS011;3229;42.674;23.282;2023-04-21T12:17:44;2.90;;;2.60;;
6392;SDS011;3229;42.674;23.282;2023-04-21T12:20:13;3.38;;;3.08;;
6392;SDS011;3229;42.674;23.282;2023-04-21T12:22:42;3.92;;;3.13;;
6392;SDS011;3229;42.674;23.282;2023-04-21T12:25:10;4.95;;;3.10;;
6392;SDS011;3229;42.674;23.282;2023-04-21T12:27:46;3.88;;;2.97;;
6392;SDS011;3229;42.674;23.282;2023-04-21T12:30:13;2.85;;;2.65;;
6392;SDS011;3229;42.674;23.282;2023-04-21T12:32:40;3.65;;;2.80;;
6392;SDS011;3229;42.674;23.282;2023-04-21T12:35:07;2.75;;;2.55;;
6392;SDS011;3229;42.674;23.282;2023-04-21T12:37:35;3.42;;;3.00;;
6392;SDS011;3229;42.674;23.282;2023-04-21T12:40:02;3.22;;;2.92;;
6392;SDS011;3229;42.674;23.282;2023-04-21T12:42:30;3.88;;;2.72;;
6392;SDS011;3229;42.674;23.282;2023-04-21T12:44:57;4.40;;;3.30;;
6392;SDS011;3229;42.674;23.282;2023-04-21T12:47:24;5.25;;;3.13;;
6392;SDS011;3229;42.674;23.282;2023-04-21T12:49:51;3.10;;;2.78;;
6392;SDS011;3229;42.674;23.282;2023-04-21T12:52:17;3.72;;;3.00;;
6392;SDS011;3229;42.674;23.282;2023-04-21T12:54:44;4.47;;;3.47;;
6392;SDS011;3229;42.674;23.282;2023-04-21T12:57:11;3.22;;;2.70;;
6392;SDS011;3229;42.674;23.282;2023-04-21T12:59:41;3.40;;;3.00;;
6392;SDS011;3229;42.674;23.282;2023-04-21T13:02:07;3.88;;;3.42;;
6392;SDS011;3229;42.674;23.282;2023-04-21T13:04:34;5.13;;;3.35;;
6392;SDS011;3229;42.674;23.282;2023-04-21T13:07:03;3.40;;;3.10;;
6392;SDS011;3229;42.674;23.282;2023-04-21T13:09:29;3.67;;;2.90;;
6392;SDS011;3229;42.674;23.282;2023-04-21T13:11:56;3.30;;;3.00;;
6392;SDS011;3229;42.674;23.282;2023-04-21T13:14:23;3.72;;;3.03;;
6392;SDS011;3229;42.674;23.282;2023-04-21T13:16:51;3.85;;;3.10;;
6392;SDS011;3229;42.674;23.282;2023-04-21T13:19:19;4.00;;;3.00;;
6392;SDS011;3229;42.674;23.282;2023-04-21T13:21:46;4.45;;;3.15;;
6392;SDS011;3229;42.674;23.282;2023-04-21T13:24:13;4.95;;;3.53;;
6392;SDS011;3229;42.674;23.282;2023-04-21T13:26:40;3.42;;;3.13;;
6392;SDS011;3229;42.674;23.282;2023-04-21T13:29:07;3.50;;;3.13;;
6392;SDS011;3229;42.674;23.282;2023-04-21T13:31:34;7.47;;;3.80;;
6392;SDS011;3229;42.674;23.282;2023-04-21T13:34:02;4.28;;;3.38;;
6392;SDS011;3229;42.674;23.282;2023-04-21T13:36:29;3.53;;;3.22;;
6392;SDS011;3229;42.674;23.282;2023-04-21T13:38:57;3.63;;;3.33;;
6392;SDS011;3229;42.674;23.282;2023-04-21T13:41:24;6.93;;;3.38;;
6392;SDS011;3229;42.674;23.282;2023-04-21T13:43:51;3.95;;;3.10;;
6392;SDS011;3229;42.674;23.282;2023-04-21T13:46:18;3.47;;;3.17;;
6392;SDS011;3229;42.674;23.282;2023-04-21T13:48:45;3.72;;;3.30;;
6392;SDS011;3229;42.674;23.282;2023-04-21T13:51:13;5.05;;;3.50;;
6392;SDS011;3229;42.674;23.282;2023-04-21T13:53:40;4.13;;;3.40;;
6392;SDS011;3229;42.674;23.282;2023-04-21T13:56:07;3.53;;;3.10;;
6392;SDS011;3229;42.674;23.282;2023-04-21T13:58:34;4.13;;;3.67;;
6392;SDS011;3229;42.674;23.282;2023-04-21T14:01:01;4.65;;;3.80;;
6392;SDS011;3229;42.674;23.282;2023-04-21T14:03:28;3.22;;;3.00;;
6392;SDS011;3229;42.674;23.282;2023-04-21T14:05:55;4.45;;;3.28;;
6392;SDS011;3229;42.674;23.282;2023-04-21T14:08:23;4.20;;;3.80;;
6392;SDS011;3229;42.674;23.282;2023-04-21T14:10:50;4.80;;;3.13;;
6392;SDS011;3229;42.674;23.282;2023-04-21T14:13:17;3.63;;;3.28;;
6392;SDS011;3229;42.674;23.282;2023-04-21T14:15:44;4.22;;;3.17;;
6392;SDS011;3229;42.674;23.282;2023-04-21T14:18:11;4.45;;;3.78;;
6392;SDS011;3229;42.674;23.282;2023-04-21T14:20:38;6.32;;;3.63;;
6392;SDS011;3229;42.674;23.282;2023-04-21T14:23:05;3.58;;;3.28;;
6392;SDS011;3229;42.674;23.282;2023-04-21T14:25:33;4.22;;;3.75;;
6392;SDS011;3229;42.674;23.282;2023-04-21T14:27:59;3.90;;;3.45;;
6392;SDS011;3229;42.674;23.282;2023-04-21T14:30:31;3.55;;;3.25;;
6392;SDS011;3229;42.674;23.282;2023-04-21T14:32:59;4.07;;;3.65;;
6392;SDS011;3229;42.674;23.282;2023-04-21T14:35:26;3.85;;;3.40;;
6392;SDS011;3229;42.674;23.282;2023-04-21T14:37:52;3.05;;;2.75;;
6392;SDS011;3229;42.674;23.282;2023-04-21T14:40:19;4.63;;;3.60;;
6392;SDS011;3229;42.674;23.282;2023-04-21T14:42:47;3.30;;;3.00;;
6392;SDS011;3229;42.674;23.282;2023-04-21T14:45:14;4.65;;;3.90;;
6392;SDS011;3229;42.674;23.282;2023-04-21T14:47:41;4.43;;;3.85;;
6392;SDS011;3229;42.674;23.282;2023-04-21T14:50:08;3.90;;;3.50;;
6392;SDS011;3229;42.674;23.282;2023-04-21T14:52:36;5.15;;;3.72;;
6392;SDS011;3229;42.674;23.282;2023-04-21T14:55:03;3.70;;;3.35;;
6392;SDS011;3229;42.674;23.282;2023-04-21T14:57:30;7.18;;;3.75;;
6392;SDS011;3229;42.674;23.282;2023-04-21T14:59:58;3.88;;;3.47;;
6392;SDS011;3229;42.674;23.282;2023-04-21T15:02:26;4.10;;;3.75;;
6392;SDS011;3229;42.674;23.282;2023-04-21T15:04:53;5.65;;;3.67;;
6392;SDS011;3229;42.674;23.282;2023-04-21T15:07:21;5.35;;;4.18;;